sensor_id;sensor_type;location;lat;lon;timestamp;temperature;humidity
21090;DHT22;10703;51.020;6.128;2022-07-29T00:02:15;18.30;99.90
21090;DHT22;10703;51.020;6.128;2022-07-29T00:04:42;18.20;99.90
21090;DHT22;10703;51.020;6.128;2022-07-29T00:07:09;18.10;99.90
21090;DHT22;10703;51.020;6.128;2022-07-29T00:09:36;18.10;99.90
21090;DHT22;10703;51.020;6.128;2022-07-29T00:12:19;18.20;99.90
21090;DHT22;10703;51.020;6.128;2022-07-29T00:14:52;18.10;99.90
21090;DHT22;10703;51.020;6.128;2022-07-29T00:17:19;18.20;99.90
21090;DHT22;10703;51.020;6.128;2022-07-29T00:19:45;18.20;99.90
21090;DHT22;10703;51.020;6.128;2022-07-29T00:22:12;18.10;99.90
21090;DHT22;10703;51.020;6.128;2022-07-29T00:24:39;18.10;99.90
21090;DHT22;10703;51.020;6.128;2022-07-29T00:27:05;18.00;99.90
21090;DHT22;10703;51.020;6.128;2022-07-29T00:29:32;18.00;99.90
21090;DHT22;10703;51.020;6.128;2022-07-29T00:32:01;18.10;99.90
21090;DHT22;10703;51.020;6.128;2022-07-29T00:34:28;18.00;99.90
21090;DHT22;10703;51.020;6.128;2022-07-29T00:37:13;18.00;99.90
21090;DHT22;10703;51.020;6.128;2022-07-29T00:39:40;17.90;99.90
21090;DHT22;10703;51.020;6.128;2022-07-29T00:42:07;17.90;99.90
21090;DHT22;10703;51.020;6.128;2022-07-29T00:44:41;17.90;99.90
21090;DHT22;10703;51.020;6.128;2022-07-29T00:47:09;17.80;99.90
21090;DHT22;10703;51.020;6.128;2022-07-29T00:49:36;17.80;99.90
21090;DHT22;10703;51.020;6.128;2022-07-29T00:52:05;17.80;99.90
21090;DHT22;10703;51.020;6.128;2022-07-29T00:54:33;17.70;99.90
21090;DHT22;10703;51.020;6.128;2022-07-29T00:57:00;17.70;99.90
21090;DHT22;10703;51.020;6.128;2022-07-29T00:59:27;17.80;99.90
21090;DHT22;10703;51.020;6.128;2022-07-29T01:02:02;17.90;99.90
21090;DHT22;10703;51.020;6.128;2022-07-29T01:04:29;17.90;99.90
21090;DHT22;10703;51.020;6.128;2022-07-29T01:06:57;17.80;99.90
21090;DHT22;10703;51.020;6.128;2022-07-29T01:09:25;17.60;99.90
21090;DHT22;10703;51.020;6.128;2022-07-29T01:12:17;17.30;99.90
21090;DHT22;10703;51.020;6.128;2022-07-29T01:14:46;17.00;99.90
21090;DHT22;10703;51.020;6.128;2022-07-29T01:17:33;16.50;99.90
21090;DHT22;10703;51.020;6.128;2022-07-29T01:20:18;16.00;99.90
21090;DHT22;10703;51.020;6.128;2022-07-29T01:22:53;15.60;99.90
21090;DHT22;10703;51.020;6.128;2022-07-29T01:31:27;14.90;99.90
21090;DHT22;10703;51.020;6.128;2022-07-29T01:34:00;14.90;99.90
21090;DHT22;10703;51.020;6.128;2022-07-29T01:36:43;14.90;99.90
21090;DHT22;10703;51.020;6.128;2022-07-29T01:39:30;14.90;99.90
21090;DHT22;10703;51.020;6.128;2022-07-29T01:44:57;14.90;99.90
21090;DHT22;10703;51.020;6.128;2022-07-29T01:47:31;14.90;99.90
21090;DHT22;10703;51.020;6.128;2022-07-29T01:50:05;14.80;99.90
21090;DHT22;10703;51.020;6.128;2022-07-29T01:52:42;14.90;99.90
21090;DHT22;10703;51.020;6.128;2022-07-29T01:55:13;14.90;99.90
21090;DHT22;10703;51.020;6.128;2022-07-29T01:57:44;14.90;99.90
21090;DHT22;10703;51.020;6.128;2022-07-29T02:00:12;15.00;99.90
21090;DHT22;10703;51.020;6.128;2022-07-29T02:02:42;15.10;99.90
21090;DHT22;10703;51.020;6.128;2022-07-29T02:05:12;15.10;99.90
21090;DHT22;10703;51.020;6.128;2022-07-29T02:07:42;15.10;99.90
21090;DHT22;10703;51.020;6.128;2022-07-29T02:10:11;15.20;99.90
21090;DHT22;10703;51.020;6.128;2022-07-29T02:12:39;15.30;99.90
21090;DHT22;10703;51.020;6.128;2022-07-29T02:15:07;15.20;99.90
21090;DHT22;10703;51.020;6.128;2022-07-29T02:18:22;15.20;99.90
21090;DHT22;10703;51.020;6.128;2022-07-29T02:20:52;15.10;99.90
21090;DHT22;10703;51.020;6.128;2022-07-29T02:23:22;15.10;99.90
21090;DHT22;10703;51.020;6.128;2022-07-29T02:25:52;15.00;99.90
21090;DHT22;10703;51.020;6.128;2022-07-29T02:28:21;15.00;99.90
21090;DHT22;10703;51.020;6.128;2022-07-29T02:30:50;15.00;99.90
21090;DHT22;10703;51.020;6.128;2022-07-29T02:33:18;14.90;99.90
21090;DHT22;10703;51.020;6.128;2022-07-29T02:35:47;14.80;99.90
21090;DHT22;10703;51.020;6.128;2022-07-29T02:38:18;14.70;99.90
21090;DHT22;10703;51.020;6.128;2022-07-29T02:41:08;14.70;99.90
21090;DHT22;10703;51.020;6.128;2022-07-29T02:43:35;14.70;99.90
21090;DHT22;10703;51.020;6.128;2022-07-29T02:46:05;14.60;99.90
21090;DHT22;10703;51.020;6.128;2022-07-29T02:49:18;14.60;99.90
21090;DHT22;10703;51.020;6.128;2022-07-29T02:51:54;14.60;99.90
21090;DHT22;10703;51.020;6.128;2022-07-29T02:54:44;14.60;99.90
21090;DHT22;10703;51.020;6.128;2022-07-29T02:57:22;14.60;99.90
21090;DHT22;10703;51.020;6.128;2022-07-29T02:59:52;14.60;99.90
21090;DHT22;10703;51.020;6.128;2022-07-29T03:02:22;14.60;99.90
21090;DHT22;10703;51.020;6.128;2022-07-29T03:04:50;14.70;99.90
21090;DHT22;10703;51.020;6.128;2022-07-29T03:07:19;14.70;99.90
21090;DHT22;10703;51.020;6.128;2022-07-29T03:09:46;14.70;99.90
21090;DHT22;10703;51.020;6.128;2022-07-29T03:12:14;14.70;99.90
21090;DHT22;10703;51.020;6.128;2022-07-29T03:14:42;14.70;99.90
21090;DHT22;10703;51.020;6.128;2022-07-29T03:17:10;14.60;99.90
21090;DHT22;10703;51.020;6.128;2022-07-29T03:19:37;14.70;99.90
21090;DHT22;10703;51.020;6.128;2022-07-29T03:22:04;14.70;99.90
21090;DHT22;10703;51.020;6.128;2022-07-29T03:24:33;14.70;99.90
21090;DHT22;10703;51.020;6.128;2022-07-29T03:27:01;14.70;99.90
21090;DHT22;10703;51.020;6.128;2022-07-29T03:29:28;14.70;99.90
21090;DHT22;10703;51.020;6.128;2022-07-29T03:32:03;14.70;99.90
21090;DHT22;10703;51.020;6.128;2022-07-29T03:34:34;14.70;99.90
21090;DHT22;10703;51.020;6.128;2022-07-29T03:37:00;14.60;99.90
21090;DHT22;10703;51.020;6.128;2022-07-29T03:39:30;14.60;99.90
21090;DHT22;10703;51.020;6.128;2022-07-29T03:41:59;14.50;99.90
21090;DHT22;10703;51.020;6.128;2022-07-29T03:44:27;14.60;99.90
21090;DHT22;10703;51.020;6.128;2022-07-29T03:46:56;14.60;99.90
21090;DHT22;10703;51.020;6.128;2022-07-29T03:49:24;14.70;99.90
21090;DHT22;10703;51.020;6.128;2022-07-29T03:51:53;14.80;99.90
21090;DHT22;10703;51.020;6.128;2022-07-29T03:54:19;14.80;99.90
21090;DHT22;10703;51.020;6.128;2022-07-29T03:56:48;14.70;99.90
21090;DHT22;10703;51.020;6.128;2022-07-29T03:59:17;14.60;99.90
21090;DHT22;10703;51.020;6.128;2022-07-29T04:01:46;14.60;99.90
21090;DHT22;10703;51.020;6.128;2022-07-29T04:04:13;14.60;99.90
21090;DHT22;10703;51.020;6.128;2022-07-29T04:06:42;14.60;99.90
21090;DHT22;10703;51.020;6.128;2022-07-29T04:09:09;14.50;99.90
21090;DHT22;10703;51.020;6.128;2022-07-29T04:11:38;14.50;99.90
21090;DHT22;10703;51.020;6.128;2022-07-29T04:14:25;14.60;99.90
21090;DHT22;10703;51.020;6.128;2022-07-29T04:16:52;14.70;99.90
21090;DHT22;10703;51.020;6.128;2022-07-29T04:19:19;14.70;99.90
21090;DHT22;10703;51.020;6.128;2022-07-29T04:21:46;14.80;99.90
21090;DHT22;10703;51.020;6.128;2022-07-29T04:24:12;14.60;99.90
21090;DHT22;10703;51.020;6.128;2022-07-29T04:26:40;14.70;99.90
21090;DHT22;10703;51.020;6.128;2022-07-29T04:29:06;14.70;99.90
21090;DHT22;10703;51.020;6.128;2022-07-29T04:31:33;14.60;99.90
21090;DHT22;10703;51.020;6.128;2022-07-29T04:34:00;14.70;99.90
21090;DHT22;10703;51.020;6.128;2022-07-29T04:36:27;15.00;99.90
21090;DHT22;10703;51.020;6.128;2022-07-29T04:38:55;14.80;99.90
21090;DHT22;10703;51.020;6.128;2022-07-29T04:41:22;14.80;99.90
21090;DHT22;10703;51.020;6.128;2022-07-29T04:43:58;14.80;99.90
21090;DHT22;10703;51.020;6.128;2022-07-29T04:46:27;14.70;99.90
21090;DHT22;10703;51.020;6.128;2022-07-29T04:48:53;14.70;99.90
21090;DHT22;10703;51.020;6.128;2022-07-29T04:51:20;14.70;99.90
21090;DHT22;10703;51.020;6.128;2022-07-29T04:53:47;14.70;99.90
21090;DHT22;10703;51.020;6.128;2022-07-29T04:56:14;14.70;99.90
21090;DHT22;10703;51.020;6.128;2022-07-29T04:58:40;14.70;99.90
21090;DHT22;10703;51.020;6.128;2022-07-29T05:01:07;14.70;99.90
21090;DHT22;10703;51.020;6.128;2022-07-29T05:03:34;14.80;99.90
21090;DHT22;10703;51.020;6.128;2022-07-29T05:06:00;14.90;99.90
21090;DHT22;10703;51.020;6.128;2022-07-29T05:08:27;14.90;99.90
21090;DHT22;10703;51.020;6.128;2022-07-29T05:10:54;14.90;99.90
21090;DHT22;10703;51.020;6.128;2022-07-29T05:13:20;14.90;99.90
21090;DHT22;10703;51.020;6.128;2022-07-29T05:15:47;14.90;99.90
21090;DHT22;10703;51.020;6.128;2022-07-29T05:18:14;14.90;99.90
21090;DHT22;10703;51.020;6.128;2022-07-29T05:20:41;14.90;99.90
21090;DHT22;10703;51.020;6.128;2022-07-29T05:23:08;15.00;99.90
21090;DHT22;10703;51.020;6.128;2022-07-29T05:25:35;15.00;99.90
21090;DHT22;10703;51.020;6.128;2022-07-29T05:28:11;15.00;99.90
21090;DHT22;10703;51.020;6.128;2022-07-29T05:30:38;15.00;99.90
21090;DHT22;10703;51.020;6.128;2022-07-29T05:33:04;15.00;99.90
21090;DHT22;10703;51.020;6.128;2022-07-29T05:35:31;15.10;99.90
21090;DHT22;10703;51.020;6.128;2022-07-29T05:37:58;15.20;99.90
21090;DHT22;10703;51.020;6.128;2022-07-29T05:40:24;15.20;99.90
21090;DHT22;10703;51.020;6.128;2022-07-29T05:42:51;15.30;99.90
21090;DHT22;10703;51.020;6.128;2022-07-29T05:45:18;15.40;99.90
21090;DHT22;10703;51.020;6.128;2022-07-29T05:47:45;15.50;99.90
21090;DHT22;10703;51.020;6.128;2022-07-29T05:50:12;15.40;99.90
21090;DHT22;10703;51.020;6.128;2022-07-29T05:52:38;15.50;99.90
21090;DHT22;10703;51.020;6.128;2022-07-29T05:55:05;15.60;99.90
21090;DHT22;10703;51.020;6.128;2022-07-29T05:57:32;15.50;99.90
21090;DHT22;10703;51.020;6.128;2022-07-29T05:59:59;15.70;99.90
21090;DHT22;10703;51.020;6.128;2022-07-29T06:02:26;15.80;99.90
21090;DHT22;10703;51.020;6.128;2022-07-29T06:04:52;15.80;99.90
21090;DHT22;10703;51.020;6.128;2022-07-29T06:07:20;16.00;99.90
21090;DHT22;10703;51.020;6.128;2022-07-29T06:09:46;16.00;99.90
21090;DHT22;10703;51.020;6.128;2022-07-29T06:12:13;16.20;99.90
21090;DHT22;10703;51.020;6.128;2022-07-29T06:14:40;16.30;99.90
21090;DHT22;10703;51.020;6.128;2022-07-29T06:17:07;16.20;99.90
21090;DHT22;10703;51.020;6.128;2022-07-29T06:19:34;16.10;99.90
21090;DHT22;10703;51.020;6.128;2022-07-29T06:22:02;16.20;99.90
21090;DHT22;10703;51.020;6.128;2022-07-29T06:24:29;16.20;99.90
21090;DHT22;10703;51.020;6.128;2022-07-29T06:26:56;16.30;99.90
21090;DHT22;10703;51.020;6.128;2022-07-29T06:29:22;16.40;99.90
21090;DHT22;10703;51.020;6.128;2022-07-29T06:31:49;16.50;99.90
21090;DHT22;10703;51.020;6.128;2022-07-29T06:34:16;16.60;99.90
21090;DHT22;10703;51.020;6.128;2022-07-29T06:36:43;16.80;99.90
21090;DHT22;10703;51.020;6.128;2022-07-29T06:39:11;17.00;99.90
21090;DHT22;10703;51.020;6.128;2022-07-29T06:41:38;17.30;99.90
21090;DHT22;10703;51.020;6.128;2022-07-29T06:44:05;17.50;99.90
21090;DHT22;10703;51.020;6.128;2022-07-29T06:46:32;17.70;99.90
21090;DHT22;10703;51.020;6.128;2022-07-29T06:48:59;18.00;99.90
21090;DHT22;10703;51.020;6.128;2022-07-29T06:51:28;18.40;99.90
21090;DHT22;10703;51.020;6.128;2022-07-29T06:53:55;18.60;99.90
21090;DHT22;10703;51.020;6.128;2022-07-29T06:56:29;19.00;99.90
21090;DHT22;10703;51.020;6.128;2022-07-29T06:58:56;19.50;99.90
21090;DHT22;10703;51.020;6.128;2022-07-29T07:01:22;19.60;99.90
21090;DHT22;10703;51.020;6.128;2022-07-29T07:03:49;19.80;99.90
21090;DHT22;10703;51.020;6.128;2022-07-29T07:06:16;19.90;99.90
21090;DHT22;10703;51.020;6.128;2022-07-29T07:08:43;20.00;99.90
21090;DHT22;10703;51.020;6.128;2022-07-29T07:11:10;20.00;99.90
21090;DHT22;10703;51.020;6.128;2022-07-29T07:13:36;19.70;99.90
21090;DHT22;10703;51.020;6.128;2022-07-29T07:16:03;19.50;99.90
21090;DHT22;10703;51.020;6.128;2022-07-29T07:18:30;19.50;99.90
21090;DHT22;10703;51.020;6.128;2022-07-29T07:20:57;19.40;99.90
21090;DHT22;10703;51.020;6.128;2022-07-29T07:23:24;19.30;99.90
21090;DHT22;10703;51.020;6.128;2022-07-29T07:25:51;19.50;99.90
21090;DHT22;10703;51.020;6.128;2022-07-29T07:28:18;19.40;99.90
21090;DHT22;10703;51.020;6.128;2022-07-29T07:30:50;19.60;99.90
21090;DHT22;10703;51.020;6.128;2022-07-29T07:33:17;19.40;99.90
21090;DHT22;10703;51.020;6.128;2022-07-29T07:35:44;19.50;99.90
21090;DHT22;10703;51.020;6.128;2022-07-29T07:38:11;19.60;99.90
21090;DHT22;10703;51.020;6.128;2022-07-29T07:40:37;19.70;99.90
21090;DHT22;10703;51.020;6.128;2022-07-29T07:43:04;20.20;99.90
21090;DHT22;10703;51.020;6.128;2022-07-29T07:45:31;20.20;99.90
21090;DHT22;10703;51.020;6.128;2022-07-29T07:47:59;19.90;99.90
21090;DHT22;10703;51.020;6.128;2022-07-29T07:50:26;20.00;99.90
21090;DHT22;10703;51.020;6.128;2022-07-29T07:52:55;20.30;99.90
21090;DHT22;10703;51.020;6.128;2022-07-29T07:55:25;20.60;99.90
21090;DHT22;10703;51.020;6.128;2022-07-29T07:57:52;21.20;99.90
21090;DHT22;10703;51.020;6.128;2022-07-29T08:00:19;22.20;99.90
21090;DHT22;10703;51.020;6.128;2022-07-29T08:02:49;22.40;99.90
21090;DHT22;10703;51.020;6.128;2022-07-29T08:05:17;22.70;99.90
21090;DHT22;10703;51.020;6.128;2022-07-29T08:07:47;23.20;99.90
21090;DHT22;10703;51.020;6.128;2022-07-29T08:10:15;23.60;99.90
21090;DHT22;10703;51.020;6.128;2022-07-29T08:13:09;24.80;99.90
21090;DHT22;10703;51.020;6.128;2022-07-29T08:15:39;25.50;99.90
21090;DHT22;10703;51.020;6.128;2022-07-29T08:18:06;25.70;99.90
21090;DHT22;10703;51.020;6.128;2022-07-29T08:20:35;25.70;99.90
21090;DHT22;10703;51.020;6.128;2022-07-29T08:23:02;25.40;99.90
21090;DHT22;10703;51.020;6.128;2022-07-29T08:25:30;25.30;99.90
21090;DHT22;10703;51.020;6.128;2022-07-29T08:27:57;25.80;99.90
21090;DHT22;10703;51.020;6.128;2022-07-29T08:30:24;26.10;99.90
21090;DHT22;10703;51.020;6.128;2022-07-29T08:32:51;25.90;99.90
21090;DHT22;10703;51.020;6.128;2022-07-29T08:35:22;25.50;99.90
21090;DHT22;10703;51.020;6.128;2022-07-29T08:37:50;25.40;99.90
21090;DHT22;10703;51.020;6.128;2022-07-29T08:40:17;25.60;99.90
21090;DHT22;10703;51.020;6.128;2022-07-29T08:42:44;25.70;99.90
21090;DHT22;10703;51.020;6.128;2022-07-29T08:45:11;25.70;99.90
21090;DHT22;10703;51.020;6.128;2022-07-29T08:47:39;25.60;99.90
21090;DHT22;10703;51.020;6.128;2022-07-29T08:50:10;25.80;99.90
21090;DHT22;10703;51.020;6.128;2022-07-29T08:52:39;25.80;99.90
21090;DHT22;10703;51.020;6.128;2022-07-29T08:55:07;25.60;99.90
21090;DHT22;10703;51.020;6.128;2022-07-29T08:57:34;26.20;99.90
21090;DHT22;10703;51.020;6.128;2022-07-29T09:00:06;26.60;99.90
21090;DHT22;10703;51.020;6.128;2022-07-29T09:02:42;27.30;99.90
21090;DHT22;10703;51.020;6.128;2022-07-29T09:05:13;26.80;99.90
21090;DHT22;10703;51.020;6.128;2022-07-29T09:07:40;26.80;99.90
21090;DHT22;10703;51.020;6.128;2022-07-29T09:10:09;26.20;99.90
21090;DHT22;10703;51.020;6.128;2022-07-29T09:12:36;26.10;99.90
21090;DHT22;10703;51.020;6.128;2022-07-29T09:15:04;25.10;99.90
21090;DHT22;10703;51.020;6.128;2022-07-29T09:17:45;24.30;99.90
21090;DHT22;10703;51.020;6.128;2022-07-29T09:20:15;23.90;99.90
21090;DHT22;10703;51.020;6.128;2022-07-29T09:22:42;23.20;99.90
21090;DHT22;10703;51.020;6.128;2022-07-29T09:25:11;23.00;99.90
21090;DHT22;10703;51.020;6.128;2022-07-29T09:27:38;22.40;99.90
21090;DHT22;10703;51.020;6.128;2022-07-29T09:30:07;22.10;99.90
21090;DHT22;10703;51.020;6.128;2022-07-29T09:32:56;21.70;99.90
21090;DHT22;10703;51.020;6.128;2022-07-29T09:35:25;21.40;99.90
21090;DHT22;10703;51.020;6.128;2022-07-29T09:37:52;21.30;99.90
21090;DHT22;10703;51.020;6.128;2022-07-29T09:40:28;21.30;99.90
21090;DHT22;10703;51.020;6.128;2022-07-29T09:42:55;21.30;99.90
21090;DHT22;10703;51.020;6.128;2022-07-29T09:45:31;21.30;99.90
21090;DHT22;10703;51.020;6.128;2022-07-29T09:47:59;21.30;99.90
21090;DHT22;10703;51.020;6.128;2022-07-29T09:50:39;21.30;99.90
21090;DHT22;10703;51.020;6.128;2022-07-29T09:53:07;21.10;99.90
21090;DHT22;10703;51.020;6.128;2022-07-29T09:55:49;21.00;99.90
21090;DHT22;10703;51.020;6.128;2022-07-29T09:58:19;20.80;99.90
21090;DHT22;10703;51.020;6.128;2022-07-29T10:00:47;20.70;99.90
21090;DHT22;10703;51.020;6.128;2022-07-29T10:03:14;20.60;99.90
21090;DHT22;10703;51.020;6.128;2022-07-29T10:05:43;20.50;99.90
21090;DHT22;10703;51.020;6.128;2022-07-29T10:08:10;20.10;99.90
21090;DHT22;10703;51.020;6.128;2022-07-29T10:10:40;20.10;99.90
21090;DHT22;10703;51.020;6.128;2022-07-29T10:13:12;20.10;99.90
21090;DHT22;10703;51.020;6.128;2022-07-29T10:15:43;20.30;99.90
21090;DHT22;10703;51.020;6.128;2022-07-29T10:18:13;20.40;99.90
21090;DHT22;10703;51.020;6.128;2022-07-29T10:20:41;20.60;99.90
21090;DHT22;10703;51.020;6.128;2022-07-29T10:23:09;20.90;99.90
21090;DHT22;10703;51.020;6.128;2022-07-29T10:25:35;21.20;99.90
21090;DHT22;10703;51.020;6.128;2022-07-29T10:28:02;21.30;99.90
21090;DHT22;10703;51.020;6.128;2022-07-29T10:30:29;21.60;99.90
21090;DHT22;10703;51.020;6.128;2022-07-29T10:33:32;22.00;99.90
21090;DHT22;10703;51.020;6.128;2022-07-29T10:36:21;22.40;99.90
21090;DHT22;10703;51.020;6.128;2022-07-29T10:44:58;23.70;99.90
21090;DHT22;10703;51.020;6.128;2022-07-29T10:47:26;24.40;99.90
21090;DHT22;10703;51.020;6.128;2022-07-29T10:49:57;25.10;99.90
21090;DHT22;10703;51.020;6.128;2022-07-29T10:52:55;26.30;99.90
21090;DHT22;10703;51.020;6.128;2022-07-29T10:55:35;27.60;99.90
21090;DHT22;10703;51.020;6.128;2022-07-29T10:58:16;28.00;99.90
21090;DHT22;10703;51.020;6.128;2022-07-29T11:00:49;28.40;99.90
21090;DHT22;10703;51.020;6.128;2022-07-29T11:06:15;28.70;99.90
21090;DHT22;10703;51.020;6.128;2022-07-29T11:08:43;29.20;99.90
21090;DHT22;10703;51.020;6.128;2022-07-29T11:13:55;30.20;99.90
21090;DHT22;10703;51.020;6.128;2022-07-29T11:16:22;30.50;99.90
21090;DHT22;10703;51.020;6.128;2022-07-29T11:21:55;30.40;99.90
21090;DHT22;10703;51.020;6.128;2022-07-29T11:24:31;30.70;99.90
21090;DHT22;10703;51.020;6.128;2022-07-29T11:27:19;30.70;99.90
21090;DHT22;10703;51.020;6.128;2022-07-29T11:29:56;30.20;99.90
21090;DHT22;10703;51.020;6.128;2022-07-29T11:32:25;31.00;99.90
21090;DHT22;10703;51.020;6.128;2022-07-29T11:37:44;32.10;99.10
21090;DHT22;10703;51.020;6.128;2022-07-29T11:40:21;32.80;97.70
21090;DHT22;10703;51.020;6.128;2022-07-29T11:42:48;33.00;98.20
21090;DHT22;10703;51.020;6.128;2022-07-29T11:45:20;32.60;98.00
21090;DHT22;10703;51.020;6.128;2022-07-29T11:48:07;32.90;97.10
21090;DHT22;10703;51.020;6.128;2022-07-29T11:51:09;33.60;96.20
21090;DHT22;10703;51.020;6.128;2022-07-29T11:53:47;33.80;96.50
21090;DHT22;10703;51.020;6.128;2022-07-29T11:56:21;33.70;95.80
21090;DHT22;10703;51.020;6.128;2022-07-29T11:59:00;33.40;95.50
21090;DHT22;10703;51.020;6.128;2022-07-29T12:01:27;34.20;95.10
21090;DHT22;10703;51.020;6.128;2022-07-29T12:04:05;33.90;95.80
21090;DHT22;10703;51.020;6.128;2022-07-29T12:06:36;33.70;95.40
21090;DHT22;10703;51.020;6.128;2022-07-29T12:09:07;33.60;94.60
21090;DHT22;10703;51.020;6.128;2022-07-29T12:11:40;33.90;95.30
21090;DHT22;10703;51.020;6.128;2022-07-29T12:14:06;33.90;94.40
21090;DHT22;10703;51.020;6.128;2022-07-29T12:16:36;34.10;95.20
21090;DHT22;10703;51.020;6.128;2022-07-29T12:19:06;33.60;94.60
21090;DHT22;10703;51.020;6.128;2022-07-29T12:22:03;34.10;94.60
21090;DHT22;10703;51.020;6.128;2022-07-29T12:24:43;34.30;93.30
21090;DHT22;10703;51.020;6.128;2022-07-29T12:27:10;34.20;94.50
21090;DHT22;10703;51.020;6.128;2022-07-29T12:29:39;34.70;93.90
21090;DHT22;10703;51.020;6.128;2022-07-29T12:32:13;34.00;93.50
21090;DHT22;10703;51.020;6.128;2022-07-29T12:34:45;34.00;94.30
21090;DHT22;10703;51.020;6.128;2022-07-29T12:37:12;34.90;93.40
21090;DHT22;10703;51.020;6.128;2022-07-29T12:39:39;35.00;92.80
21090;DHT22;10703;51.020;6.128;2022-07-29T12:42:13;34.60;92.70
21090;DHT22;10703;51.020;6.128;2022-07-29T12:44:45;34.50;92.80
21090;DHT22;10703;51.020;6.128;2022-07-29T12:47:12;35.10;92.30
21090;DHT22;10703;51.020;6.128;2022-07-29T12:49:39;35.80;91.30
21090;DHT22;10703;51.020;6.128;2022-07-29T12:54:51;35.60;90.50
21090;DHT22;10703;51.020;6.128;2022-07-29T12:57:18;36.20;90.70
21090;DHT22;10703;51.020;6.128;2022-07-29T13:00:03;35.70;90.00
21090;DHT22;10703;51.020;6.128;2022-07-29T13:02:30;35.70;90.20
21090;DHT22;10703;51.020;6.128;2022-07-29T13:04:59;36.00;90.70
21090;DHT22;10703;51.020;6.128;2022-07-29T13:07:31;35.50;90.10
21090;DHT22;10703;51.020;6.128;2022-07-29T13:10:20;35.70;91.50
21090;DHT22;10703;51.020;6.128;2022-07-29T13:15:37;35.80;88.70
21090;DHT22;10703;51.020;6.128;2022-07-29T13:18:05;36.30;88.40
21090;DHT22;10703;51.020;6.128;2022-07-29T13:20:32;36.10;87.50
21090;DHT22;10703;51.020;6.128;2022-07-29T13:23:00;36.30;87.70
21090;DHT22;10703;51.020;6.128;2022-07-29T13:25:31;36.00;89.70
21090;DHT22;10703;51.020;6.128;2022-07-29T13:27:59;36.10;87.40
21090;DHT22;10703;51.020;6.128;2022-07-29T13:30:26;36.20;88.20
21090;DHT22;10703;51.020;6.128;2022-07-29T13:32:53;36.20;86.10
21090;DHT22;10703;51.020;6.128;2022-07-29T13:35:20;36.40;86.50
21090;DHT22;10703;51.020;6.128;2022-07-29T13:37:47;35.00;88.20
21090;DHT22;10703;51.020;6.128;2022-07-29T13:40:13;35.40;88.00
21090;DHT22;10703;51.020;6.128;2022-07-29T13:42:40;35.30;87.10
21090;DHT22;10703;51.020;6.128;2022-07-29T13:45:09;35.20;88.10
21090;DHT22;10703;51.020;6.128;2022-07-29T13:47:35;35.30;87.30
21090;DHT22;10703;51.020;6.128;2022-07-29T13:50:04;35.00;86.60
21090;DHT22;10703;51.020;6.128;2022-07-29T13:52:32;35.30;85.60
21090;DHT22;10703;51.020;6.128;2022-07-29T13:55:00;35.60;87.60
21090;DHT22;10703;51.020;6.128;2022-07-29T13:57:27;36.00;88.00
21090;DHT22;10703;51.020;6.128;2022-07-29T13:59:54;36.40;85.00
21090;DHT22;10703;51.020;6.128;2022-07-29T14:02:21;36.40;86.70
21090;DHT22;10703;51.020;6.128;2022-07-29T14:04:54;36.80;85.80
21090;DHT22;10703;51.020;6.128;2022-07-29T14:07:22;36.40;84.70
21090;DHT22;10703;51.020;6.128;2022-07-29T14:09:48;36.80;83.20
21090;DHT22;10703;51.020;6.128;2022-07-29T14:12:16;37.10;84.20
21090;DHT22;10703;51.020;6.128;2022-07-29T14:14:43;37.10;85.20
21090;DHT22;10703;51.020;6.128;2022-07-29T14:17:13;37.60;84.60
21090;DHT22;10703;51.020;6.128;2022-07-29T14:19:39;37.40;85.00
21090;DHT22;10703;51.020;6.128;2022-07-29T14:22:07;37.10;82.80
21090;DHT22;10703;51.020;6.128;2022-07-29T14:24:35;36.40;85.30
21090;DHT22;10703;51.020;6.128;2022-07-29T14:27:04;36.20;86.50
21090;DHT22;10703;51.020;6.128;2022-07-29T14:29:31;36.40;87.70
21090;DHT22;10703;51.020;6.128;2022-07-29T14:32:05;36.60;86.10
21090;DHT22;10703;51.020;6.128;2022-07-29T14:34:33;37.00;86.40
21090;DHT22;10703;51.020;6.128;2022-07-29T14:37:00;36.80;87.90
21090;DHT22;10703;51.020;6.128;2022-07-29T14:39:27;36.20;86.60
21090;DHT22;10703;51.020;6.128;2022-07-29T14:41:57;35.80;86.40
21090;DHT22;10703;51.020;6.128;2022-07-29T14:44:25;35.90;86.40
21090;DHT22;10703;51.020;6.128;2022-07-29T14:47:00;36.00;86.30
21090;DHT22;10703;51.020;6.128;2022-07-29T14:49:34;35.50;85.40
21090;DHT22;10703;51.020;6.128;2022-07-29T14:52:01;35.10;87.60
21090;DHT22;10703;51.020;6.128;2022-07-29T14:54:27;34.50;86.30
21090;DHT22;10703;51.020;6.128;2022-07-29T14:56:54;33.20;85.70
21090;DHT22;10703;51.020;6.128;2022-07-29T14:59:23;32.50;87.50
21090;DHT22;10703;51.020;6.128;2022-07-29T15:01:50;32.30;89.40
21090;DHT22;10703;51.020;6.128;2022-07-29T15:04:17;31.90;90.20
21090;DHT22;10703;51.020;6.128;2022-07-29T15:06:43;31.60;89.50
21090;DHT22;10703;51.020;6.128;2022-07-29T15:09:10;31.50;91.40
21090;DHT22;10703;51.020;6.128;2022-07-29T15:11:37;31.60;91.10
21090;DHT22;10703;51.020;6.128;2022-07-29T15:14:05;32.20;91.60
21090;DHT22;10703;51.020;6.128;2022-07-29T15:16:34;32.50;90.50
21090;DHT22;10703;51.020;6.128;2022-07-29T15:19:01;32.80;91.10
21090;DHT22;10703;51.020;6.128;2022-07-29T15:21:28;33.00;90.70
21090;DHT22;10703;51.020;6.128;2022-07-29T15:23:55;32.30;90.30
21090;DHT22;10703;51.020;6.128;2022-07-29T15:26:21;32.50;91.00
21090;DHT22;10703;51.020;6.128;2022-07-29T15:28:48;33.10;91.60
21090;DHT22;10703;51.020;6.128;2022-07-29T15:31:15;33.90;90.90
21090;DHT22;10703;51.020;6.128;2022-07-29T15:33:42;33.90;89.50
21090;DHT22;10703;51.020;6.128;2022-07-29T15:36:08;34.20;89.50
21090;DHT22;10703;51.020;6.128;2022-07-29T15:38:37;34.40;89.50
21090;DHT22;10703;51.020;6.128;2022-07-29T15:41:07;34.60;88.90
21090;DHT22;10703;51.020;6.128;2022-07-29T15:43:34;34.80;89.80
21090;DHT22;10703;51.020;6.128;2022-07-29T15:46:03;34.30;89.80
21090;DHT22;10703;51.020;6.128;2022-07-29T15:48:49;33.10;90.70
21090;DHT22;10703;51.020;6.128;2022-07-29T15:51:15;33.30;90.20
21090;DHT22;10703;51.020;6.128;2022-07-29T15:53:42;33.70;90.70
21090;DHT22;10703;51.020;6.128;2022-07-29T15:56:18;34.00;88.80
21090;DHT22;10703;51.020;6.128;2022-07-29T15:58:45;34.40;90.00
21090;DHT22;10703;51.020;6.128;2022-07-29T16:01:12;34.50;89.60
21090;DHT22;10703;51.020;6.128;2022-07-29T16:03:39;33.80;90.10
21090;DHT22;10703;51.020;6.128;2022-07-29T16:06:12;33.00;89.00
21090;DHT22;10703;51.020;6.128;2022-07-29T16:08:38;32.50;90.70
21090;DHT22;10703;51.020;6.128;2022-07-29T16:11:05;32.50;90.70
21090;DHT22;10703;51.020;6.128;2022-07-29T16:13:32;32.20;90.90
21090;DHT22;10703;51.020;6.128;2022-07-29T16:15:58;33.10;90.20
21090;DHT22;10703;51.020;6.128;2022-07-29T16:18:28;33.00;89.60
21090;DHT22;10703;51.020;6.128;2022-07-29T16:20:56;33.10;90.20